createdAt,value
2023-04-19T00:00:08.515Z,102633.72
2023-04-19T00:02:31.709Z,102638.97
2023-04-19T00:04:53.638Z,102641.13
2023-04-19T00:07:16.942Z,102628.19
2023-04-19T00:09:38.694Z,102630.09
2023-04-19T00:12:01.202Z,102627.34
2023-04-19T00:14:22.980Z,102630.09
2023-04-19T00:16:45.823Z,102629.28
2023-04-19T00:19:07.524Z,102621.81
2023-04-19T00:21:29.240Z,102626.78
2023-04-19T00:23:51.605Z,102625.63
2023-04-19T00:26:15.649Z,102621.81
2023-04-19T00:28:42.561Z,102613.03
2023-04-19T00:31:04.337Z,102620.47
2023-04-19T00:33:26.031Z,102614.13
2023-04-19T00:35:47.844Z,102613.31
2023-04-19T00:38:09.526Z,102613.84
2023-04-19T00:40:32.406Z,102617.97
2023-04-19T00:42:55.372Z,102615.78
2023-04-19T00:45:17.018Z,102617.97
2023-04-19T00:47:39.069Z,102612.44
2023-04-19T00:50:00.961Z,102609.38
2023-04-19T00:52:23.443Z,102609.38
2023-04-19T00:54:45.919Z,102600.28
2023-04-19T00:57:08.625Z,102600.59
2023-04-19T00:59:31.203Z,102604.97
2023-04-19T01:01:53.359Z,102592.81
2023-04-19T01:04:16.607Z,102596.97
2023-04-19T01:06:41.154Z,102598.31
2023-04-19T01:09:05.831Z,102585.38
2023-04-19T01:11:29.138Z,102593.88
2023-04-19T01:13:51.356Z,102586.72
2023-04-19T01:16:13.382Z,102589.69
2023-04-19T01:18:37.563Z,102588.88
2023-04-19T01:20:59.981Z,102586.66
2023-04-19T01:23:21.727Z,102587.19
2023-04-19T01:25:44.245Z,102585.75
2023-04-19T01:28:06.335Z,102582.69
2023-04-19T01:30:30.444Z,102585.97
2023-04-19T01:32:52.094Z,102587.63
2023-04-19T01:35:15.104Z,102579.84
2023-04-19T01:37:37.352Z,102577.94
2023-04-19T01:39:58.930Z,102579.56
2023-04-19T01:42:22.917Z,102579.28
2023-04-19T01:44:44.677Z,102577.34
2023-04-19T01:47:06.610Z,102573.22
2023-04-19T01:49:29.249Z,102583.22
2023-04-19T01:51:51.082Z,102576.63
2023-04-19T01:54:13.096Z,102582.47
2023-04-19T01:56:36.247Z,102586.13
2023-04-19T01:58:58.024Z,102579.84
2023-04-19T02:01:19.824Z,102589.84
2023-04-19T02:03:42.629Z,102587.66
2023-04-19T02:06:04.779Z,102577.50
2023-04-19T02:08:27.576Z,102586.38
2023-04-19T02:10:50.209Z,102573.47
2023-04-19T02:13:12.290Z,102574.88
2023-04-19T02:15:34.099Z,102583.09
2023-04-19T02:17:55.863Z,102586.38
2023-04-19T02:20:17.562Z,102578.94
2023-04-19T02:22:39.330Z,102580.63
2023-04-19T02:25:01.385Z,102580.97
2023-04-19T02:27:25.477Z,102583.19
2023-04-19T02:29:47.096Z,102573.34
2023-04-19T02:32:08.955Z,102580.00
2023-04-19T02:34:34.568Z,102573.41
2023-04-19T02:36:56.265Z,102576.78
2023-04-19T02:39:17.966Z,102582.28
2023-04-19T02:41:39.681Z,102585.09
2023-04-19T02:44:02.464Z,102576.84
2023-04-19T02:46:24.193Z,102580.16
2023-04-19T02:48:46.730Z,102582.03
2023-04-19T02:51:08.578Z,102582.03
2023-04-19T02:53:32.510Z,102584.84
2023-04-19T02:55:54.495Z,102593.19
2023-04-19T02:58:16.100Z,102592.31
2023-04-19T03:00:58.050Z,102590.97
2023-04-19T03:03:19.904Z,102597.81
2023-04-19T03:05:41.669Z,102590.16
2023-04-19T03:08:03.397Z,102592.06
2023-04-19T03:10:26.196Z,102588.19
2023-04-19T03:12:47.859Z,102588.47
2023-04-19T03:15:10.482Z,102590.16
2023-04-19T03:17:32.339Z,102578.28
2023-04-19T03:19:54.299Z,102584.09
2023-04-19T03:22:16.259Z,102587.13
2023-04-19T03:24:38.202Z,102578.38
2023-04-19T03:27:11.296Z,102575.41
2023-04-19T03:29:32.989Z,102572.09
2023-04-19T03:31:58.321Z,102575.41
2023-04-19T03:34:20.051Z,102570.41
2023-04-19T03:36:43.677Z,102580.06
2023-04-19T03:39:06.294Z,102574.06
2023-04-19T03:41:28.074Z,102573.50
2023-04-19T03:44:17.427Z,102577.41
2023-04-19T03:46:39.993Z,102579.91
2023-04-19T03:49:02.138Z,102580.75
2023-04-19T03:51:25.049Z,102585.75
2023-04-19T03:53:47.485Z,102573.41
2023-04-19T03:56:12.224Z,102581.69
2023-04-19T03:58:34.012Z,102580.09
2023-04-19T04:01:01.299Z,102585.34
2023-04-19T04:03:23.052Z,102582.88
2023-04-19T04:05:45.320Z,102579.03
2023-04-19T04:08:07.757Z,102582.31
2023-04-19T04:10:29.481Z,102588.66
2023-04-19T04:12:51.388Z,102586.47
2023-04-19T04:15:20.659Z,102594.47
2023-04-19T04:17:46.755Z,102591.19
2023-04-19T04:20:09.868Z,102583.25
2023-04-19T04:22:31.595Z,102581.13
2023-04-19T04:24:54.159Z,102587.25
2023-04-19T04:27:23.924Z,102591.13
2023-04-19T04:29:49.471Z,102586.22
2023-04-19T04:32:12.202Z,102595.59
2023-04-19T04:34:37.340Z,102582.09
2023-04-19T04:37:04.305Z,102577.19
2023-04-19T04:39:26.698Z,102586.53
2023-04-19T04:41:49.619Z,102582.72
2023-04-19T04:44:13.089Z,102580.50
2023-04-19T04:46:36.511Z,102578.91
2023-04-19T04:48:58.334Z,102585.00
2023-04-19T04:51:20.277Z,102571.84
2023-04-19T04:53:44.624Z,102587.84
2023-04-19T04:56:06.671Z,102576.06
2023-04-19T04:58:28.420Z,102578.28
2023-04-19T05:00:55.752Z,102581.31
2023-04-19T05:03:20.037Z,102587.09
2023-04-19T05:05:47.887Z,102587.88
2023-04-19T05:08:09.875Z,102591.72
2023-04-19T05:10:33.835Z,102582.84
2023-04-19T05:12:56.224Z,102594.41
2023-04-19T05:15:18.453Z,102594.63
2023-04-19T05:17:45.345Z,102590.75
2023-04-19T05:20:08.908Z,102596.47
2023-04-19T05:22:31.220Z,102596.44
2023-04-19T05:24:53.675Z,102595.28
2023-04-19T05:27:15.600Z,102594.16
2023-04-19T05:29:37.517Z,102588.56
2023-04-19T05:31:59.965Z,102601.72
2023-04-19T05:34:27.574Z,102603.34
2023-04-19T05:36:51.191Z,102597.78
2023-04-19T05:39:13.568Z,102602.69
2023-04-19T05:41:35.304Z,102600.75
2023-04-19T05:43:57.050Z,102594.38
2023-04-19T05:46:20.112Z,102599.91
2023-04-19T05:48:42.009Z,102601.84
2023-04-19T05:51:23.688Z,102606.47
2023-04-19T05:54:15.626Z,102614.16
2023-04-19T05:56:40.980Z,102598.16
2023-04-19T05:59:03.013Z,102606.47
2023-04-19T06:01:24.833Z,102604.53
2023-04-19T06:03:46.890Z,102593.25
2023-04-19T06:06:08.973Z,102598.25
2023-04-19T06:08:31.690Z,102603.50
2023-04-19T06:10:58.410Z,102604.00
2023-04-19T06:13:24.861Z,102604.53
2023-04-19T06:15:48.523Z,102597.06
2023-04-19T06:18:11.006Z,102599.25
2023-04-19T06:20:41.618Z,102600.88
2023-04-19T06:23:04.300Z,102598.38
2023-04-19T06:25:26.088Z,102602.44
2023-04-19T06:27:48.010Z,102600.44
2023-04-19T06:30:11.150Z,102607.56
2023-04-19T06:32:32.914Z,102606.72
2023-04-19T06:34:54.859Z,102601.19
2023-04-19T06:37:17.563Z,102600.84
2023-04-19T06:39:39.785Z,102609.03
2023-04-19T06:42:02.443Z,102593.78
2023-04-19T06:44:24.765Z,102596.13
2023-04-19T06:46:46.528Z,102594.34
2023-04-19T06:49:08.266Z,102601.16
2023-04-19T06:51:30.528Z,102596.91
2023-04-19T06:53:52.286Z,102600.44
2023-04-19T06:56:13.971Z,102594.94
2023-04-19T06:58:35.875Z,102610.06
2023-04-19T07:00:57.786Z,102597.31
2023-04-19T07:03:21.520Z,102601.13
2023-04-19T07:05:43.533Z,102596.66
2023-04-19T07:08:05.425Z,102589.66
2023-04-19T07:10:27.322Z,102594.72
2023-04-19T07:12:49.175Z,102593.47
2023-04-19T07:15:11.887Z,102590.66
2023-04-19T07:17:36.168Z,102597.72
2023-04-19T07:19:58.043Z,102600.41
2023-04-19T07:22:19.798Z,102600.19
2023-04-19T07:24:44.481Z,102596.59
2023-04-19T07:27:06.195Z,102591.22
2023-04-19T07:29:27.936Z,102601.28
2023-04-19T07:31:49.782Z,102596.19
2023-04-19T07:34:11.563Z,102602.69
2023-04-19T07:36:35.096Z,102598.59
2023-04-19T07:38:57.861Z,102595.81
2023-04-19T07:41:19.791Z,102594.41
2023-04-19T07:43:41.635Z,102600.03
2023-04-19T07:46:11.028Z,102603.84
2023-04-19T07:48:32.907Z,102598.94
2023-04-19T07:50:54.613Z,102595.84
2023-04-19T07:53:16.944Z,102597.94
2023-04-19T07:55:39.583Z,102598.94
2023-04-19T07:58:02.496Z,102593.44
2023-04-19T08:00:24.368Z,102596.63
2023-04-19T08:02:48.233Z,102601.88
2023-04-19T08:05:10.448Z,102595.44
2023-04-19T08:07:32.202Z,102593.16
2023-04-19T08:09:54.392Z,102596.31
2023-04-19T08:12:26.879Z,102580.97
2023-04-19T08:15:05.242Z,102583.84
2023-04-19T08:17:40.705Z,102594.09
2023-04-19T08:20:06.840Z,102599.84
2023-04-19T08:22:28.395Z,102585.09
2023-04-19T08:24:51.989Z,102591.53
2023-04-19T08:27:14.159Z,102590.91
2023-04-19T08:29:36.202Z,102584.19
2023-04-19T08:31:58.027Z,102577.13
2023-04-19T08:34:20.120Z,102584.50
2023-04-19T08:36:51.619Z,102582.69
2023-04-19T08:39:31.857Z,102581.63
2023-04-19T08:42:06.621Z,102583.56
2023-04-19T08:44:36.374Z,102586.59
2023-04-19T08:47:01.218Z,102578.97
2023-04-19T08:49:23.072Z,102577.72
2023-04-19T08:51:45.170Z,102580.13
2023-04-19T08:54:07.758Z,102582.94
2023-04-19T08:56:35.676Z,102585.19
2023-04-19T08:59:19.524Z,102590.56
2023-04-19T09:01:42.338Z,102584.22
2023-04-19T09:04:26.304Z,102578.28
2023-04-19T09:06:49.443Z,102566.91
2023-04-19T09:11:46.607Z,102572.72
2023-04-19T09:14:15.548Z,102570.34
2023-04-19T09:16:40.336Z,102577.31
2023-04-19T09:21:31.796Z,102571.97
2023-04-19T09:23:53.900Z,102575.31
2023-04-19T09:26:23.325Z,102572.63
2023-04-19T09:29:02.172Z,102563.09
2023-04-19T09:31:43.265Z,102566.50
2023-04-19T09:34:18.410Z,102569.72
2023-04-19T09:36:41.211Z,102564.72
2023-04-19T09:39:02.940Z,102567.56
2023-04-19T09:41:28.498Z,102567.63
2023-04-19T09:46:37.234Z,102560.72
2023-04-19T09:49:25.069Z,102561.88
2023-04-19T09:51:56.212Z,102551.47
2023-04-19T09:54:20.445Z,102551.31
2023-04-19T09:56:43.974Z,102566.00
2023-04-19T09:59:19.328Z,102554.19
2023-04-19T10:02:05.092Z,102553.06
2023-04-19T10:04:43.605Z,102566.63
2023-04-19T10:09:49.516Z,102551.94
2023-04-19T10:14:43.648Z,102553.03
2023-04-19T10:17:06.160Z,102555.97
2023-04-19T10:19:29.339Z,102543.41
2023-04-19T10:21:51.898Z,102553.19
2023-04-19T10:24:15.700Z,102575.41
2023-04-19T10:27:08.701Z,102569.81
2023-04-19T10:30:07.051Z,102558.38
2023-04-19T10:32:39.758Z,102552.28
2023-04-19T10:35:04.770Z,102546.03
2023-04-19T10:37:26.750Z,102551.88
2023-04-19T10:39:48.455Z,102547.19
2023-04-19T10:42:10.644Z,102544.31
2023-04-19T10:44:32.421Z,102547.97
2023-04-19T10:46:54.833Z,102540.66
2023-04-19T10:49:16.892Z,102527.94
2023-04-19T10:51:43.351Z,102524.00
2023-04-19T10:54:09.849Z,102529.56
2023-04-19T10:56:34.519Z,102531.72
2023-04-19T10:59:02.733Z,102527.97
2023-04-19T11:01:45.713Z,102519.47
2023-04-19T11:04:09.920Z,102526.66
2023-04-19T11:06:33.609Z,102508.81
2023-04-19T11:08:55.622Z,102498.22
2023-04-19T11:11:17.583Z,102513.72
2023-04-19T11:13:39.176Z,102508.00
2023-04-19T11:16:07.649Z,102499.16
2023-04-19T11:18:32.667Z,102502.94
2023-04-19T11:20:55.010Z,102504.84
2023-04-19T11:23:17.954Z,102500.41
2023-04-19T11:25:39.743Z,102502.34
2023-04-19T11:28:01.724Z,102492.53
2023-04-19T11:30:32.054Z,102486.13
2023-04-19T11:32:56.384Z,102480.22
2023-04-19T11:35:27.901Z,102485.44
2023-04-19T11:37:50.397Z,102478.25
2023-04-19T11:40:19.935Z,102469.38
2023-04-19T11:42:41.739Z,102467.53
2023-04-19T11:45:03.867Z,102468.63
2023-04-19T11:47:29.400Z,102454.75
2023-04-19T11:49:51.266Z,102455.63
2023-04-19T11:52:23.025Z,102451.75
2023-04-19T11:54:46.827Z,102441.91
2023-04-19T11:57:09.410Z,102457.41
2023-04-19T11:59:35.330Z,102435.44
2023-04-19T12:02:04.253Z,102440.75
2023-04-19T12:04:28.448Z,102428.78
2023-04-19T12:07:01.897Z,102431.56
2023-04-19T12:09:24.229Z,102433.34
2023-04-19T12:11:50.675Z,102422.41
2023-04-19T12:14:17.092Z,102434.06
2023-04-19T12:16:39.153Z,102428.09
2023-04-19T12:19:18.209Z,102420.75
2023-04-19T12:21:41.017Z,102419.56
2023-04-19T12:24:03.733Z,102418.19
2023-04-19T12:26:29.866Z,102414.59
2023-04-19T12:28:51.667Z,102407.22
2023-04-19T12:31:13.403Z,102411.72
2023-04-19T12:33:35.326Z,102412.53
2023-04-19T12:35:57.041Z,102404.94
2023-04-19T12:38:18.934Z,102393.47
2023-04-19T12:40:40.804Z,102411.72
2023-04-19T12:43:02.963Z,102406.06
2023-04-19T12:45:25.010Z,102405.38
2023-04-19T12:47:48.760Z,102391.09
2023-04-19T12:50:10.921Z,102392.66
2023-04-19T12:52:33.801Z,102388.63
2023-04-19T12:54:55.630Z,102388.34
2023-04-19T12:57:17.583Z,102392.94
2023-04-19T12:59:39.444Z,102386.13
2023-04-19T13:02:01.696Z,102379.75
2023-04-19T13:04:24.217Z,102388.16
2023-04-19T13:06:46.821Z,102372.47
2023-04-19T13:09:14.341Z,102371.06
2023-04-19T13:11:36.823Z,102377.50
2023-04-19T13:13:58.609Z,102367.06
2023-04-19T13:16:21.037Z,102354.16
2023-04-19T13:18:43.200Z,102357.22
2023-04-19T13:21:07.452Z,102360.22
2023-04-19T13:23:30.408Z,102359.97
2023-04-19T13:25:52.396Z,102354.63
2023-04-19T13:28:14.449Z,102346.16
2023-04-19T13:30:36.353Z,102340.53
2023-04-19T13:32:58.159Z,102355.88
2023-04-19T13:35:20.200Z,102337.13
2023-04-19T13:37:44.362Z,102325.50
2023-04-19T13:40:18.779Z,102329.94
2023-04-19T13:42:41.627Z,102333.41
2023-04-19T13:45:03.817Z,102333.75
2023-04-19T13:47:25.886Z,102327.22
2023-04-19T13:49:52.149Z,102322.88
2023-04-19T13:52:14.942Z,102328.06
2023-04-19T13:54:36.727Z,102329.41
2023-04-19T13:56:58.825Z,102324.19
2023-04-19T13:59:21.956Z,102310.13
2023-04-19T14:01:43.883Z,102319.94
2023-04-19T14:04:06.156Z,102321.59
2023-04-19T14:06:28.376Z,102316.50
2023-04-19T14:08:51.412Z,102306.44
2023-04-19T14:11:13.737Z,102312.09
2023-04-19T14:13:35.805Z,102313.81
2023-04-19T14:15:58.072Z,102298.41
2023-04-19T14:18:20.266Z,102292.50
2023-04-19T14:20:42.526Z,102286.13
2023-04-19T14:23:04.847Z,102287.16
2023-04-19T14:25:27.448Z,102276.97
2023-04-19T14:27:49.400Z,102275.03
2023-04-19T14:30:11.632Z,102267.38
2023-04-19T14:32:33.964Z,102267.94
2023-04-19T14:34:56.440Z,102252.38
2023-04-19T14:37:19.463Z,102257.06
2023-04-19T14:39:41.449Z,102248.66
2023-04-19T14:42:03.610Z,102254.09
2023-04-19T14:44:25.390Z,102246.78
2023-04-19T14:46:47.568Z,102245.00
2023-04-19T14:49:09.958Z,102250.22
2023-04-19T14:51:33.168Z,102249.06
2023-04-19T14:53:54.996Z,102243.63
2023-04-19T14:56:17.305Z,102241.88
2023-04-19T14:58:39.342Z,102231.91
2023-04-19T15:01:11.795Z,102229.72
2023-04-19T15:03:34.333Z,102250.63
2023-04-19T15:05:56.409Z,102235.06
2023-04-19T15:10:46.401Z,102230.66
2023-04-19T15:13:08.236Z,102228.69
2023-04-19T15:15:30.053Z,102225.31
2023-04-19T15:17:52.774Z,102228.44
2023-04-19T15:20:14.923Z,102229.47
2023-04-19T15:22:37.381Z,102225.19
2023-04-19T15:25:02.062Z,102222.75
2023-04-19T15:27:23.892Z,102217.06
2023-04-19T15:29:47.623Z,102218.56
2023-04-19T15:32:09.441Z,102213.31
2023-04-19T15:34:31.319Z,102206.81
2023-04-19T15:36:54.162Z,102201.13
2023-04-19T15:39:16.337Z,102205.66
2023-04-19T15:41:38.394Z,102199.84
2023-04-19T15:44:01.243Z,102197.19
2023-04-19T15:46:23.299Z,102198.34
2023-04-19T15:48:48.290Z,102204.16
2023-04-19T15:51:11.432Z,102191.16
2023-04-19T15:53:33.449Z,102198.56
2023-04-19T15:55:56.730Z,102196.56
2023-04-19T15:58:19.522Z,102194.69
2023-04-19T16:00:41.291Z,102191.88
2023-04-19T16:03:03.413Z,102195.13
2023-04-19T16:05:26.021Z,102200.91
2023-04-19T16:07:47.924Z,102187.59
2023-04-19T16:10:11.662Z,102197.91
2023-04-19T16:12:33.730Z,102196.69
2023-04-19T16:14:55.521Z,102192.56
2023-04-19T16:17:17.270Z,102193.09
2023-04-19T16:19:38.947Z,102195.88
2023-04-19T16:22:02.349Z,102180.75
2023-04-19T16:24:24.088Z,102190.84
2023-04-19T16:26:46.845Z,102192.69
2023-04-19T16:29:08.850Z,102184.69
2023-04-19T16:31:30.810Z,102186.72
2023-04-19T16:33:52.595Z,102178.28
2023-04-19T16:36:14.349Z,102179.88
2023-04-19T16:38:36.589Z,102175.50
2023-04-19T16:41:00.613Z,102184.59
2023-04-19T16:43:22.522Z,102174.88
2023-04-19T16:45:44.564Z,102177.31
2023-04-19T16:48:06.744Z,102186.56
2023-04-19T16:50:28.683Z,102174.00
2023-04-19T16:52:50.591Z,102167.63
2023-04-19T16:55:12.430Z,102175.44
2023-04-19T16:57:34.655Z,102173.13
2023-04-19T16:59:56.653Z,102171.34
2023-04-19T17:02:19.504Z,102160.78
2023-04-19T17:04:42.318Z,102165.84
2023-04-19T17:07:04.429Z,102158.53
2023-04-19T17:09:26.463Z,102164.97
2023-04-19T17:11:48.151Z,102155.00
2023-04-19T17:14:10.116Z,102182.66
2023-04-19T17:16:31.979Z,102167.34
2023-04-19T17:18:56.346Z,102166.84
2023-04-19T17:21:18.141Z,102162.78
2023-04-19T17:23:39.972Z,102165.25
2023-04-19T17:26:01.979Z,102159.06
2023-04-19T17:28:23.760Z,102163.78
2023-04-19T17:30:45.817Z,102158.53
2023-04-19T17:33:07.738Z,102162.44
2023-04-19T17:35:29.570Z,102156.22
2023-04-19T17:37:52.119Z,102153.56
2023-04-19T17:40:14.269Z,102152.84
2023-04-19T17:42:36.054Z,102153.59
2023-04-19T17:44:58.532Z,102155.13
2023-04-19T17:47:21.264Z,102156.66
2023-04-19T17:49:46.105Z,102156.41
2023-04-19T17:52:07.871Z,102148.81
2023-04-19T17:54:30.046Z,102148.09
2023-04-19T17:56:52.822Z,102151.13
2023-04-19T17:59:14.776Z,102158.06
2023-04-19T18:01:36.774Z,102155.22
2023-04-19T18:03:59.030Z,102155.97
2023-04-19T18:06:21.974Z,102152.28
2023-04-19T18:08:44.029Z,102160.41
2023-04-19T18:11:07.045Z,102155.19
2023-04-19T18:13:28.757Z,102161.09
2023-04-19T18:15:50.360Z,102155.59
2023-04-19T18:18:12.025Z,102157.56
2023-04-19T18:20:35.072Z,102164.16
2023-04-19T18:22:59.205Z,102162.50
2023-04-19T18:25:20.791Z,102166.25
2023-04-19T18:27:42.522Z,102175.16
2023-04-19T18:30:06.544Z,102174.91
2023-04-19T18:32:30.139Z,102176.53
2023-04-19T18:34:53.195Z,102177.03
2023-04-19T18:37:16.946Z,102175.41
2023-04-19T18:39:38.555Z,102188.25
2023-04-19T18:42:01.852Z,102179.25
2023-04-19T18:44:44.104Z,102192.41
2023-04-19T18:47:05.368Z,102190.53
2023-04-19T18:49:26.978Z,102199.94
2023-04-19T18:51:50.342Z,102201.66
2023-04-19T18:54:11.962Z,102211.84
2023-04-19T18:58:59.802Z,102213.03
2023-04-19T19:01:21.552Z,102212.38
2023-04-19T19:06:08.036Z,102227.56
2023-04-19T19:08:30.440Z,102226.97
2023-04-19T19:13:16.588Z,102234.72
2023-04-19T19:15:40.691Z,102234.03
2023-04-19T19:18:03.775Z,102225.84
2023-04-19T19:20:26.045Z,102240.91
2023-04-19T19:22:48.441Z,102235.50
2023-04-19T19:25:12.157Z,102241.13
2023-04-19T19:27:35.328Z,102245.34
2023-04-19T19:29:58.795Z,102244.00
2023-04-19T19:32:20.674Z,102253.75
2023-04-19T19:34:51.852Z,102245.75
2023-04-19T19:37:16.937Z,102256.41
2023-04-19T19:39:38.716Z,102247.41
2023-04-19T19:42:05.367Z,102255.81
2023-04-19T19:44:28.111Z,102255.06
2023-04-19T19:46:49.741Z,102253.00
2023-04-19T19:49:13.203Z,102259.97
2023-04-19T19:53:59.943Z,102259.88
2023-04-19T19:56:23.874Z,102252.72
2023-04-19T19:58:50.289Z,102265.19
2023-04-19T20:01:13.398Z,102262.53
2023-04-19T20:03:37.953Z,102273.34
2023-04-19T20:06:00.172Z,102269.56
2023-04-19T20:08:23.678Z,102271.00
2023-04-19T20:10:45.774Z,102276.91
2023-04-19T20:13:09.076Z,102276.78
2023-04-19T20:15:31.038Z,102283.09
2023-04-19T20:17:52.682Z,102275.22
2023-04-19T20:20:14.917Z,102279.28
2023-04-19T20:22:38.117Z,102282.41
2023-04-19T20:25:00.459Z,102279.38
2023-04-19T20:27:22.202Z,102284.66
2023-04-19T20:29:43.952Z,102279.31
2023-04-19T20:32:05.974Z,102287.13
2023-04-19T20:34:48.013Z,102279.25
2023-04-19T20:37:30.655Z,102277.69
2023-04-19T20:40:15.019Z,102289.16
2023-04-19T20:42:56.777Z,102278.75
2023-04-19T20:45:38.412Z,102278.75
2023-04-19T20:48:20.118Z,102281.78
2023-04-19T20:51:01.806Z,102290.34
2023-04-19T20:53:43.500Z,102285.22
2023-04-19T20:56:25.570Z,102278.13
2023-04-19T20:59:07.355Z,102285.41
2023-04-19T21:01:49.027Z,102285.97
2023-04-19T21:04:30.845Z,102283.28
2023-04-19T21:07:12.622Z,102285.28
2023-04-19T21:09:54.202Z,102286.25
2023-04-19T21:12:35.968Z,102281.06
2023-04-19T21:14:57.643Z,102289.41
2023-04-19T21:17:20.660Z,102284.25
2023-04-19T21:19:42.411Z,102286.00
2023-04-19T21:22:04.120Z,102287.13
2023-04-19T21:24:26.210Z,102281.94
2023-04-19T21:26:47.952Z,102284.53
2023-04-19T21:29:11.557Z,102288.97
2023-04-19T21:31:33.223Z,102290.59
2023-04-19T21:33:54.898Z,102292.00
2023-04-19T21:36:16.535Z,102287.91
2023-04-19T21:38:38.160Z,102282.41
2023-04-19T21:40:59.780Z,102287.16
2023-04-19T21:43:23.179Z,102272.63
2023-04-19T21:45:44.769Z,102285.59
2023-04-19T21:48:06.552Z,102280.44
2023-04-19T21:50:28.316Z,102276.00
2023-04-19T21:52:49.957Z,102265.84
2023-04-19T21:55:11.617Z,102273.88
2023-04-19T21:57:33.299Z,102278.03
2023-04-19T21:59:54.949Z,102279.16
2023-04-19T22:02:17.154Z,102280.00
2023-04-19T22:04:39.654Z,102278.41
2023-04-19T22:07:02.629Z,102274.53
2023-04-19T22:09:24.638Z,102280.06
2023-04-19T22:11:47.128Z,102274.06
2023-04-19T22:14:09.123Z,102282.81
2023-04-19T22:16:32.732Z,102277.13
2023-04-19T22:18:54.499Z,102280.69
2023-04-19T22:21:16.163Z,102276.59
2023-04-19T22:23:38.047Z,102273.88
2023-04-19T22:26:00.239Z,102281.88
2023-04-19T22:28:21.930Z,102280.81
2023-04-19T22:30:43.529Z,102281.91
2023-04-19T22:33:05.356Z,102281.91
2023-04-19T22:35:27.280Z,102280.81
2023-04-19T22:37:48.920Z,102278.63
2023-04-19T22:40:12.066Z,102277.03
2023-04-19T22:42:33.740Z,102276.22
2023-04-19T22:44:55.509Z,102279.28
2023-04-19T22:47:17.480Z,102277.13
2023-04-19T22:49:43.027Z,102269.41
2023-04-19T22:52:05.050Z,102272.47
2023-04-19T22:54:26.926Z,102273.03
2023-04-19T22:56:48.603Z,102266.69
2023-04-19T22:59:10.556Z,102266.19
2023-04-19T23:01:32.254Z,102255.75
2023-04-19T23:03:53.950Z,102262.06
2023-04-19T23:06:17.868Z,102260.44
2023-04-19T23:08:40.335Z,102247.56
2023-04-19T23:11:02.005Z,102245.91
2023-04-19T23:13:23.745Z,102253.34
2023-04-19T23:15:45.841Z,102245.44
2023-04-19T23:18:07.730Z,102252.88
2023-04-19T23:20:30.744Z,102249.06
2023-04-19T23:22:52.406Z,102248.25
2023-04-19T23:25:14.127Z,102249.63
2023-04-19T23:27:36.240Z,102241.16
2023-04-19T23:29:57.877Z,102236.22
2023-04-19T23:32:19.699Z,102234.31
2023-04-19T23:34:41.466Z,102242.28
2023-04-19T23:37:03.186Z,102241.22
2023-04-19T23:39:24.933Z,102231.31
2023-04-19T23:41:46.552Z,102236.22
2023-04-19T23:44:08.251Z,102236.22
2023-04-19T23:46:29.920Z,102239.56
2023-04-19T23:48:51.581Z,102235.72
2023-04-19T23:51:14.634Z,102227.78
2023-04-19T23:53:36.325Z,102227.00
2023-04-19T23:55:57.956Z,102218.47
2023-04-19T23:58:19.701Z,102212.44
